sensor_id;sensor_type;location;lat;lon;timestamp;P1;durP1;ratioP1;P2;durP2;ratioP2
77978;SDS011;67169;50.268;8.694;2023-10-09T00:02:06;1.27;;;1.02;;
77978;SDS011;67169;50.268;8.694;2023-10-09T00:04:32;2.58;;;1.38;;
77978;SDS011;67169;50.268;8.694;2023-10-09T00:07:01;1.85;;;1.40;;
77978;SDS011;67169;50.268;8.694;2023-10-09T00:09:32;2.22;;;1.52;;
77978;SDS011;67169;50.268;8.694;2023-10-09T00:12:12;1.50;;;1.27;;
77978;SDS011;67169;50.268;8.694;2023-10-09T00:14:41;2.85;;;1.75;;
77978;SDS011;67169;50.268;8.694;2023-10-09T00:17:12;1.25;;;1.15;;
77978;SDS011;67169;50.268;8.694;2023-10-09T00:19:43;2.15;;;1.10;;
77978;SDS011;67169;50.268;8.694;2023-10-09T00:22:12;2.50;;;1.33;;
77978;SDS011;67169;50.268;8.694;2023-10-09T00:24:51;1.77;;;1.20;;
77978;SDS011;67169;50.268;8.694;2023-10-09T00:27:36;2.35;;;1.17;;
77978;SDS011;67169;50.268;8.694;2023-10-09T00:30:07;2.75;;;1.23;;
77978;SDS011;67169;50.268;8.694;2023-10-09T00:32:34;1.25;;;1.00;;
77978;SDS011;67169;50.268;8.694;2023-10-09T00:35:10;1.55;;;1.05;;
77978;SDS011;67169;50.268;8.694;2023-10-09T00:37:50;1.45;;;1.30;;
77978;SDS011;67169;50.268;8.694;2023-10-09T00:40:21;5.50;;;1.70;;
77978;SDS011;67169;50.268;8.694;2023-10-09T00:42:54;1.48;;;1.02;;
77978;SDS011;67169;50.268;8.694;2023-10-09T00:45:21;1.67;;;1.08;;
77978;SDS011;67169;50.268;8.694;2023-10-09T00:47:57;4.20;;;1.63;;
77978;SDS011;67169;50.268;8.694;2023-10-09T00:50:27;4.75;;;1.40;;
77978;SDS011;67169;50.268;8.694;2023-10-09T00:53:00;1.40;;;1.13;;
77978;SDS011;67169;50.268;8.694;2023-10-09T00:55:31;2.70;;;1.50;;
77978;SDS011;67169;50.268;8.694;2023-10-09T00:58:11;3.80;;;1.60;;
77978;SDS011;67169;50.268;8.694;2023-10-09T01:00:39;4.13;;;1.58;;
77978;SDS011;67169;50.268;8.694;2023-10-09T01:03:13;3.78;;;2.03;;
77978;SDS011;67169;50.268;8.694;2023-10-09T01:05:46;3.63;;;1.42;;
77978;SDS011;67169;50.268;8.694;2023-10-09T01:08:22;2.67;;;1.40;;
77978;SDS011;67169;50.268;8.694;2023-10-09T01:10:55;1.92;;;1.45;;
77978;SDS011;67169;50.268;8.694;2023-10-09T01:13:25;2.08;;;1.15;;
77978;SDS011;67169;50.268;8.694;2023-10-09T01:16:04;3.20;;;1.83;;
77978;SDS011;67169;50.268;8.694;2023-10-09T01:21:01;2.15;;;1.23;;
77978;SDS011;67169;50.268;8.694;2023-10-09T01:23:30;1.52;;;1.27;;
77978;SDS011;67169;50.268;8.694;2023-10-09T01:25:56;2.10;;;1.38;;
77978;SDS011;67169;50.268;8.694;2023-10-09T01:28:23;2.08;;;1.55;;
77978;SDS011;67169;50.268;8.694;2023-10-09T01:30:51;1.55;;;0.80;;
77978;SDS011;67169;50.268;8.694;2023-10-09T01:33:20;2.47;;;1.85;;
77978;SDS011;67169;50.268;8.694;2023-10-09T01:35:49;1.95;;;1.52;;
77978;SDS011;67169;50.268;8.694;2023-10-09T01:38:21;2.92;;;1.60;;
77978;SDS011;67169;50.268;8.694;2023-10-09T01:40:58;2.90;;;1.35;;
77978;SDS011;67169;50.268;8.694;2023-10-09T01:43:32;2.60;;;1.45;;
77978;SDS011;67169;50.268;8.694;2023-10-09T01:45:59;2.78;;;1.42;;
77978;SDS011;67169;50.268;8.694;2023-10-09T01:48:26;1.83;;;1.35;;
77978;SDS011;67169;50.268;8.694;2023-10-09T01:50:53;2.20;;;1.20;;
77978;SDS011;67169;50.268;8.694;2023-10-09T01:53:20;2.78;;;1.20;;
77978;SDS011;67169;50.268;8.694;2023-10-09T01:55:50;1.92;;;1.20;;
77978;SDS011;67169;50.268;8.694;2023-10-09T01:58:21;3.08;;;1.85;;
77978;SDS011;67169;50.268;8.694;2023-10-09T02:00:52;2.05;;;0.90;;
77978;SDS011;67169;50.268;8.694;2023-10-09T02:03:21;1.73;;;1.25;;
77978;SDS011;67169;50.268;8.694;2023-10-09T02:05:49;3.38;;;1.40;;
77978;SDS011;67169;50.268;8.694;2023-10-09T02:08:16;2.63;;;1.50;;
77978;SDS011;67169;50.268;8.694;2023-10-09T02:10:47;4.25;;;1.20;;
77978;SDS011;67169;50.268;8.694;2023-10-09T02:13:13;2.20;;;1.38;;
77978;SDS011;67169;50.268;8.694;2023-10-09T02:15:43;1.98;;;1.20;;
77978;SDS011;67169;50.268;8.694;2023-10-09T02:18:23;1.38;;;0.95;;
77978;SDS011;67169;50.268;8.694;2023-10-09T02:21:05;2.28;;;1.00;;
77978;SDS011;67169;50.268;8.694;2023-10-09T02:23:39;3.00;;;1.42;;
77978;SDS011;67169;50.268;8.694;2023-10-09T02:26:11;1.58;;;1.35;;
77978;SDS011;67169;50.268;8.694;2023-10-09T02:28:43;1.90;;;1.15;;
77978;SDS011;67169;50.268;8.694;2023-10-09T02:33:48;2.53;;;1.50;;
77978;SDS011;67169;50.268;8.694;2023-10-09T02:36:18;1.50;;;1.17;;
77978;SDS011;67169;50.268;8.694;2023-10-09T02:38:45;3.50;;;1.02;;
77978;SDS011;67169;50.268;8.694;2023-10-09T02:41:13;1.27;;;0.90;;
77978;SDS011;67169;50.268;8.694;2023-10-09T02:43:53;1.50;;;1.17;;
77978;SDS011;67169;50.268;8.694;2023-10-09T02:46:22;2.22;;;1.33;;
77978;SDS011;67169;50.268;8.694;2023-10-09T02:48:56;1.65;;;1.17;;
77978;SDS011;67169;50.268;8.694;2023-10-09T02:51:24;4.13;;;1.40;;
77978;SDS011;67169;50.268;8.694;2023-10-09T02:53:59;2.78;;;1.38;;
77978;SDS011;67169;50.268;8.694;2023-10-09T02:56:43;8.48;;;1.83;;
77978;SDS011;67169;50.268;8.694;2023-10-09T02:59:12;1.15;;;1.05;;
77978;SDS011;67169;50.268;8.694;2023-10-09T03:01:40;4.03;;;1.75;;
77978;SDS011;67169;50.268;8.694;2023-10-09T03:04:07;3.08;;;1.25;;
77978;SDS011;67169;50.268;8.694;2023-10-09T03:06:35;2.60;;;1.30;;
77978;SDS011;67169;50.268;8.694;2023-10-09T03:09:08;2.17;;;1.50;;
77978;SDS011;67169;50.268;8.694;2023-10-09T03:11:43;1.98;;;1.40;;
77978;SDS011;67169;50.268;8.694;2023-10-09T03:14:11;3.75;;;1.42;;
77978;SDS011;67169;50.268;8.694;2023-10-09T03:16:38;4.50;;;1.50;;
77978;SDS011;67169;50.268;8.694;2023-10-09T03:19:06;2.92;;;1.13;;
77978;SDS011;67169;50.268;8.694;2023-10-09T03:21:32;2.15;;;1.10;;
77978;SDS011;67169;50.268;8.694;2023-10-09T03:23:59;1.75;;;1.45;;
77978;SDS011;67169;50.268;8.694;2023-10-09T03:26:29;3.13;;;1.80;;
77978;SDS011;67169;50.268;8.694;2023-10-09T03:28:56;3.83;;;1.73;;
77978;SDS011;67169;50.268;8.694;2023-10-09T03:31:26;1.33;;;1.23;;
77978;SDS011;67169;50.268;8.694;2023-10-09T03:33:56;2.47;;;1.38;;
77978;SDS011;67169;50.268;8.694;2023-10-09T03:36:24;2.97;;;1.67;;
77978;SDS011;67169;50.268;8.694;2023-10-09T03:38:54;1.05;;;0.68;;
77978;SDS011;67169;50.268;8.694;2023-10-09T03:41:23;1.77;;;1.08;;
77978;SDS011;67169;50.268;8.694;2023-10-09T03:43:51;2.55;;;1.60;;
77978;SDS011;67169;50.268;8.694;2023-10-09T03:46:19;2.05;;;1.50;;
77978;SDS011;67169;50.268;8.694;2023-10-09T03:48:51;2.85;;;1.60;;
77978;SDS011;67169;50.268;8.694;2023-10-09T03:51:21;1.40;;;1.30;;
77978;SDS011;67169;50.268;8.694;2023-10-09T03:53:50;1.27;;;0.82;;
77978;SDS011;67169;50.268;8.694;2023-10-09T03:56:17;4.53;;;1.35;;
77978;SDS011;67169;50.268;8.694;2023-10-09T03:58:47;2.83;;;1.73;;
77978;SDS011;67169;50.268;8.694;2023-10-09T04:01:15;4.10;;;1.10;;
77978;SDS011;67169;50.268;8.694;2023-10-09T04:03:48;1.83;;;1.27;;
77978;SDS011;67169;50.268;8.694;2023-10-09T04:06:14;2.40;;;1.55;;
77978;SDS011;67169;50.268;8.694;2023-10-09T04:11:15;1.90;;;1.17;;
77978;SDS011;67169;50.268;8.694;2023-10-09T04:13:48;1.73;;;1.60;;
77978;SDS011;67169;50.268;8.694;2023-10-09T04:16:17;3.05;;;1.75;;
77978;SDS011;67169;50.268;8.694;2023-10-09T04:19:01;1.92;;;1.15;;
77978;SDS011;67169;50.268;8.694;2023-10-09T04:21:36;2.22;;;1.08;;
77978;SDS011;67169;50.268;8.694;2023-10-09T04:24:02;1.67;;;1.20;;
77978;SDS011;67169;50.268;8.694;2023-10-09T04:26:49;6.97;;;2.17;;
77978;SDS011;67169;50.268;8.694;2023-10-09T04:29:21;2.72;;;1.40;;
77978;SDS011;67169;50.268;8.694;2023-10-09T04:31:51;2.72;;;1.50;;
77978;SDS011;67169;50.268;8.694;2023-10-09T04:34:20;2.95;;;2.22;;
77978;SDS011;67169;50.268;8.694;2023-10-09T04:36:54;2.22;;;1.40;;
77978;SDS011;67169;50.268;8.694;2023-10-09T04:39:25;3.20;;;1.58;;
77978;SDS011;67169;50.268;8.694;2023-10-09T04:42:03;2.72;;;1.92;;
77978;SDS011;67169;50.268;8.694;2023-10-09T04:44:47;3.42;;;1.55;;
77978;SDS011;67169;50.268;8.694;2023-10-09T04:47:45;3.90;;;2.55;;
77978;SDS011;67169;50.268;8.694;2023-10-09T04:50:23;2.17;;;1.98;;
77978;SDS011;67169;50.268;8.694;2023-10-09T04:53:12;2.35;;;1.65;;
77978;SDS011;67169;50.268;8.694;2023-10-09T04:55:49;2.78;;;1.90;;
77978;SDS011;67169;50.268;8.694;2023-10-09T04:58:24;4.00;;;2.42;;
77978;SDS011;67169;50.268;8.694;2023-10-09T05:00:52;7.53;;;2.30;;
77978;SDS011;67169;50.268;8.694;2023-10-09T05:03:40;5.63;;;2.38;;
77978;SDS011;67169;50.268;8.694;2023-10-09T05:06:08;3.28;;;2.53;;
77978;SDS011;67169;50.268;8.694;2023-10-09T05:08:47;3.45;;;1.38;;
77978;SDS011;67169;50.268;8.694;2023-10-09T05:11:13;5.15;;;2.83;;
77978;SDS011;67169;50.268;8.694;2023-10-09T05:14:01;3.83;;;2.35;;
77978;SDS011;67169;50.268;8.694;2023-10-09T05:16:39;3.22;;;1.95;;
77978;SDS011;67169;50.268;8.694;2023-10-09T05:19:19;4.05;;;1.80;;
77978;SDS011;67169;50.268;8.694;2023-10-09T05:21:58;2.70;;;2.15;;
77978;SDS011;67169;50.268;8.694;2023-10-09T05:24:29;4.40;;;2.95;;
77978;SDS011;67169;50.268;8.694;2023-10-09T05:27:07;3.63;;;2.58;;
77978;SDS011;67169;50.268;8.694;2023-10-09T05:29:44;5.70;;;2.25;;
77978;SDS011;67169;50.268;8.694;2023-10-09T05:32:25;3.28;;;1.90;;
77978;SDS011;67169;50.268;8.694;2023-10-09T05:35:00;4.20;;;2.50;;
77978;SDS011;67169;50.268;8.694;2023-10-09T05:37:40;3.63;;;1.55;;
77978;SDS011;67169;50.268;8.694;2023-10-09T05:40:12;4.07;;;2.33;;
77978;SDS011;67169;50.268;8.694;2023-10-09T05:42:56;3.50;;;2.50;;
77978;SDS011;67169;50.268;8.694;2023-10-09T05:45:26;6.45;;;2.22;;
77978;SDS011;67169;50.268;8.694;2023-10-09T05:48:10;5.63;;;2.85;;
77978;SDS011;67169;50.268;8.694;2023-10-09T05:50:54;3.63;;;2.35;;
77978;SDS011;67169;50.268;8.694;2023-10-09T05:53:59;3.85;;;2.38;;
77978;SDS011;67169;50.268;8.694;2023-10-09T05:56:42;3.15;;;1.95;;
77978;SDS011;67169;50.268;8.694;2023-10-09T05:59:26;7.18;;;3.20;;
77978;SDS011;67169;50.268;8.694;2023-10-09T06:02:12;6.03;;;2.17;;
77978;SDS011;67169;50.268;8.694;2023-10-09T06:04:58;4.65;;;2.05;;
77978;SDS011;67169;50.268;8.694;2023-10-09T06:07:29;6.38;;;2.45;;
77978;SDS011;67169;50.268;8.694;2023-10-09T06:10:26;7.75;;;4.13;;
77978;SDS011;67169;50.268;8.694;2023-10-09T06:13:04;5.07;;;2.50;;
77978;SDS011;67169;50.268;8.694;2023-10-09T06:15:35;5.97;;;3.25;;
77978;SDS011;67169;50.268;8.694;2023-10-09T06:18:18;6.70;;;3.28;;
77978;SDS011;67169;50.268;8.694;2023-10-09T06:20:59;3.17;;;2.80;;
77978;SDS011;67169;50.268;8.694;2023-10-09T06:23:34;4.03;;;2.97;;
77978;SDS011;67169;50.268;8.694;2023-10-09T06:26:34;6.82;;;2.72;;
77978;SDS011;67169;50.268;8.694;2023-10-09T06:29:00;5.10;;;2.95;;
77978;SDS011;67169;50.268;8.694;2023-10-09T06:31:58;5.32;;;2.92;;
77978;SDS011;67169;50.268;8.694;2023-10-09T06:34:42;5.03;;;2.55;;
77978;SDS011;67169;50.268;8.694;2023-10-09T06:37:11;5.60;;;2.90;;
77978;SDS011;67169;50.268;8.694;2023-10-09T06:39:59;7.88;;;4.03;;
77978;SDS011;67169;50.268;8.694;2023-10-09T06:42:51;5.80;;;3.55;;
77978;SDS011;67169;50.268;8.694;2023-10-09T06:45:20;7.65;;;3.80;;
77978;SDS011;67169;50.268;8.694;2023-10-09T06:47:47;9.18;;;3.88;;
77978;SDS011;67169;50.268;8.694;2023-10-09T06:50:22;7.50;;;4.57;;
77978;SDS011;67169;50.268;8.694;2023-10-09T06:53:12;8.07;;;5.00;;
77978;SDS011;67169;50.268;8.694;2023-10-09T06:55:53;8.57;;;5.35;;
77978;SDS011;67169;50.268;8.694;2023-10-09T06:58:30;8.13;;;5.50;;
77978;SDS011;67169;50.268;8.694;2023-10-09T07:01:06;11.05;;;5.40;;
77978;SDS011;67169;50.268;8.694;2023-10-09T07:03:50;9.50;;;5.07;;
77978;SDS011;67169;50.268;8.694;2023-10-09T07:06:20;7.88;;;4.65;;
77978;SDS011;67169;50.268;8.694;2023-10-09T07:08:50;7.22;;;4.30;;
77978;SDS011;67169;50.268;8.694;2023-10-09T07:11:38;7.28;;;3.80;;
77978;SDS011;67169;50.268;8.694;2023-10-09T07:14:28;7.85;;;4.55;;
77978;SDS011;67169;50.268;8.694;2023-10-09T07:17:12;6.85;;;3.63;;
77978;SDS011;67169;50.268;8.694;2023-10-09T07:20:08;7.03;;;4.03;;
77978;SDS011;67169;50.268;8.694;2023-10-09T07:22:39;5.95;;;4.07;;
77978;SDS011;67169;50.268;8.694;2023-10-09T07:25:17;7.85;;;4.03;;
77978;SDS011;67169;50.268;8.694;2023-10-09T07:27:57;6.78;;;4.00;;
77978;SDS011;67169;50.268;8.694;2023-10-09T07:30:25;4.20;;;3.42;;
77978;SDS011;67169;50.268;8.694;2023-10-09T07:33:02;8.13;;;4.07;;
77978;SDS011;67169;50.268;8.694;2023-10-09T07:35:42;7.93;;;3.92;;
77978;SDS011;67169;50.268;8.694;2023-10-09T07:38:25;7.93;;;3.67;;
77978;SDS011;67169;50.268;8.694;2023-10-09T07:40:55;6.05;;;3.55;;
77978;SDS011;67169;50.268;8.694;2023-10-09T07:43:25;8.93;;;3.78;;
77978;SDS011;67169;50.268;8.694;2023-10-09T07:46:01;6.35;;;3.85;;
77978;SDS011;67169;50.268;8.694;2023-10-09T07:48:45;5.82;;;3.67;;
77978;SDS011;67169;50.268;8.694;2023-10-09T07:51:17;7.05;;;3.35;;
77978;SDS011;67169;50.268;8.694;2023-10-09T07:53:49;4.93;;;3.13;;
77978;SDS011;67169;50.268;8.694;2023-10-09T07:56:22;7.25;;;3.75;;
77978;SDS011;67169;50.268;8.694;2023-10-09T07:58:49;6.15;;;2.70;;
77978;SDS011;67169;50.268;8.694;2023-10-09T08:03:48;6.10;;;3.22;;
77978;SDS011;67169;50.268;8.694;2023-10-09T08:06:23;8.75;;;3.40;;
77978;SDS011;67169;50.268;8.694;2023-10-09T08:09:09;3.97;;;2.45;;
77978;SDS011;67169;50.268;8.694;2023-10-09T08:12:04;6.00;;;3.13;;
77978;SDS011;67169;50.268;8.694;2023-10-09T08:15:00;9.77;;;2.72;;
77978;SDS011;67169;50.268;8.694;2023-10-09T08:17:45;5.75;;;3.20;;
77978;SDS011;67169;50.268;8.694;2023-10-09T08:20:16;6.25;;;2.90;;
77978;SDS011;67169;50.268;8.694;2023-10-09T08:22:50;6.18;;;2.53;;
77978;SDS011;67169;50.268;8.694;2023-10-09T08:25:19;5.35;;;3.10;;
77978;SDS011;67169;50.268;8.694;2023-10-09T08:27:57;5.80;;;2.95;;
77978;SDS011;67169;50.268;8.694;2023-10-09T08:30:44;6.15;;;3.13;;
77978;SDS011;67169;50.268;8.694;2023-10-09T08:33:16;6.07;;;2.78;;
77978;SDS011;67169;50.268;8.694;2023-10-09T08:36:00;8.38;;;2.53;;
77978;SDS011;67169;50.268;8.694;2023-10-09T08:38:30;4.70;;;2.40;;
77978;SDS011;67169;50.268;8.694;2023-10-09T08:41:07;8.25;;;2.97;;
77978;SDS011;67169;50.268;8.694;2023-10-09T08:43:47;5.78;;;2.80;;
77978;SDS011;67169;50.268;8.694;2023-10-09T08:46:16;3.53;;;1.83;;
77978;SDS011;67169;50.268;8.694;2023-10-09T08:48:45;5.70;;;2.88;;
77978;SDS011;67169;50.268;8.694;2023-10-09T08:51:12;6.45;;;2.55;;
77978;SDS011;67169;50.268;8.694;2023-10-09T08:53:39;5.95;;;3.03;;
77978;SDS011;67169;50.268;8.694;2023-10-09T08:56:10;6.43;;;2.42;;
77978;SDS011;67169;50.268;8.694;2023-10-09T08:58:37;3.70;;;3.17;;
77978;SDS011;67169;50.268;8.694;2023-10-09T09:01:05;7.80;;;3.85;;
77978;SDS011;67169;50.268;8.694;2023-10-09T09:03:38;5.60;;;2.95;;
77978;SDS011;67169;50.268;8.694;2023-10-09T09:06:06;6.22;;;2.65;;
77978;SDS011;67169;50.268;8.694;2023-10-09T09:08:33;4.63;;;3.17;;
77978;SDS011;67169;50.268;8.694;2023-10-09T09:11:02;5.28;;;3.13;;
77978;SDS011;67169;50.268;8.694;2023-10-09T09:13:39;4.53;;;2.63;;
77978;SDS011;67169;50.268;8.694;2023-10-09T09:16:14;8.30;;;3.45;;
77978;SDS011;67169;50.268;8.694;2023-10-09T09:18:52;7.05;;;3.22;;
77978;SDS011;67169;50.268;8.694;2023-10-09T09:21:30;6.38;;;3.40;;
77978;SDS011;67169;50.268;8.694;2023-10-09T09:24:03;4.88;;;2.30;;
77978;SDS011;67169;50.268;8.694;2023-10-09T09:26:41;7.25;;;3.10;;
77978;SDS011;67169;50.268;8.694;2023-10-09T09:29:12;5.82;;;2.95;;
77978;SDS011;67169;50.268;8.694;2023-10-09T09:31:51;5.60;;;2.75;;
77978;SDS011;67169;50.268;8.694;2023-10-09T09:34:18;8.57;;;2.70;;
77978;SDS011;67169;50.268;8.694;2023-10-09T09:36:51;4.40;;;2.47;;
77978;SDS011;67169;50.268;8.694;2023-10-09T09:39:21;9.38;;;2.65;;
77978;SDS011;67169;50.268;8.694;2023-10-09T09:41:53;4.65;;;2.63;;
77978;SDS011;67169;50.268;8.694;2023-10-09T09:44:23;4.90;;;2.63;;
77978;SDS011;67169;50.268;8.694;2023-10-09T09:46:56;7.13;;;3.20;;
77978;SDS011;67169;50.268;8.694;2023-10-09T09:49:25;5.63;;;2.58;;
77978;SDS011;67169;50.268;8.694;2023-10-09T09:51:56;4.45;;;2.58;;
77978;SDS011;67169;50.268;8.694;2023-10-09T09:54:24;4.88;;;2.33;;
77978;SDS011;67169;50.268;8.694;2023-10-09T09:56:53;5.60;;;2.83;;
77978;SDS011;67169;50.268;8.694;2023-10-09T09:59:22;4.68;;;2.33;;
77978;SDS011;67169;50.268;8.694;2023-10-09T10:01:53;4.50;;;2.45;;
77978;SDS011;67169;50.268;8.694;2023-10-09T10:04:24;4.60;;;2.22;;
77978;SDS011;67169;50.268;8.694;2023-10-09T10:06:53;5.80;;;2.25;;
77978;SDS011;67169;50.268;8.694;2023-10-09T10:09:34;3.13;;;2.17;;
77978;SDS011;67169;50.268;8.694;2023-10-09T10:12:04;8.32;;;2.60;;
77978;SDS011;67169;50.268;8.694;2023-10-09T10:17:24;4.38;;;2.30;;
77978;SDS011;67169;50.268;8.694;2023-10-09T10:19:59;4.43;;;2.42;;
77978;SDS011;67169;50.268;8.694;2023-10-09T10:22:39;6.18;;;2.35;;
77978;SDS011;67169;50.268;8.694;2023-10-09T10:25:13;5.45;;;2.10;;
77978;SDS011;67169;50.268;8.694;2023-10-09T10:28:15;5.05;;;2.00;;
77978;SDS011;67169;50.268;8.694;2023-10-09T10:30:49;8.68;;;3.10;;
77978;SDS011;67169;50.268;8.694;2023-10-09T10:33:16;4.32;;;2.33;;
77978;SDS011;67169;50.268;8.694;2023-10-09T10:35:47;10.65;;;3.05;;
77978;SDS011;67169;50.268;8.694;2023-10-09T10:38:30;8.25;;;3.28;;
77978;SDS011;67169;50.268;8.694;2023-10-09T10:41:08;7.57;;;3.45;;
77978;SDS011;67169;50.268;8.694;2023-10-09T10:43:41;5.00;;;2.90;;
77978;SDS011;67169;50.268;8.694;2023-10-09T10:46:21;6.07;;;3.17;;
77978;SDS011;67169;50.268;8.694;2023-10-09T10:49:03;5.88;;;2.45;;
77978;SDS011;67169;50.268;8.694;2023-10-09T10:51:41;6.22;;;2.45;;
77978;SDS011;67169;50.268;8.694;2023-10-09T10:54:19;6.40;;;3.10;;
77978;SDS011;67169;50.268;8.694;2023-10-09T10:57:14;6.13;;;2.92;;
77978;SDS011;67169;50.268;8.694;2023-10-09T10:59:53;6.75;;;2.88;;
77978;SDS011;67169;50.268;8.694;2023-10-09T11:02:41;5.00;;;3.10;;
77978;SDS011;67169;50.268;8.694;2023-10-09T11:05:09;5.10;;;2.25;;
77978;SDS011;67169;50.268;8.694;2023-10-09T11:07:48;5.63;;;2.08;;
77978;SDS011;67169;50.268;8.694;2023-10-09T11:10:21;4.45;;;2.70;;
77978;SDS011;67169;50.268;8.694;2023-10-09T11:12:53;3.88;;;2.20;;
77978;SDS011;67169;50.268;8.694;2023-10-09T11:15:34;3.08;;;2.03;;
77978;SDS011;67169;50.268;8.694;2023-10-09T11:18:12;5.75;;;2.38;;
77978;SDS011;67169;50.268;8.694;2023-10-09T11:20:45;5.70;;;2.60;;
77978;SDS011;67169;50.268;8.694;2023-10-09T11:23:22;2.65;;;2.08;;
77978;SDS011;67169;50.268;8.694;2023-10-09T11:28:46;6.20;;;2.40;;
77978;SDS011;67169;50.268;8.694;2023-10-09T11:31:14;3.08;;;1.85;;
77978;SDS011;67169;50.268;8.694;2023-10-09T11:33:43;2.42;;;1.73;;
77978;SDS011;67169;50.268;8.694;2023-10-09T11:36:10;5.75;;;1.95;;
77978;SDS011;67169;50.268;8.694;2023-10-09T11:41:11;5.95;;;2.10;;
77978;SDS011;67169;50.268;8.694;2023-10-09T11:43:47;5.47;;;1.90;;
77978;SDS011;67169;50.268;8.694;2023-10-09T11:46:19;4.50;;;2.50;;
77978;SDS011;67169;50.268;8.694;2023-10-09T11:49:14;3.83;;;2.00;;
77978;SDS011;67169;50.268;8.694;2023-10-09T11:51:51;3.05;;;1.80;;
77978;SDS011;67169;50.268;8.694;2023-10-09T11:54:52;4.22;;;2.35;;
77978;SDS011;67169;50.268;8.694;2023-10-09T11:57:21;6.25;;;1.92;;
77978;SDS011;67169;50.268;8.694;2023-10-09T11:59:55;5.13;;;2.10;;
77978;SDS011;67169;50.268;8.694;2023-10-09T12:02:23;3.80;;;2.42;;
77978;SDS011;67169;50.268;8.694;2023-10-09T12:04:52;3.80;;;1.45;;
77978;SDS011;67169;50.268;8.694;2023-10-09T12:07:21;6.18;;;2.50;;
77978;SDS011;67169;50.268;8.694;2023-10-09T12:09:48;6.43;;;2.45;;
77978;SDS011;67169;50.268;8.694;2023-10-09T12:12:16;3.97;;;1.65;;
77978;SDS011;67169;50.268;8.694;2023-10-09T12:14:43;9.23;;;1.60;;
77978;SDS011;67169;50.268;8.694;2023-10-09T12:17:10;4.18;;;1.70;;
77978;SDS011;67169;50.268;8.694;2023-10-09T12:19:37;3.00;;;1.55;;
77978;SDS011;67169;50.268;8.694;2023-10-09T12:22:07;2.70;;;1.80;;
77978;SDS011;67169;50.268;8.694;2023-10-09T12:24:41;3.78;;;1.85;;
77978;SDS011;67169;50.268;8.694;2023-10-09T12:27:08;2.50;;;1.20;;
77978;SDS011;67169;50.268;8.694;2023-10-09T12:29:36;4.53;;;2.15;;
77978;SDS011;67169;50.268;8.694;2023-10-09T12:32:03;5.38;;;2.13;;
77978;SDS011;67169;50.268;8.694;2023-10-09T12:34:35;5.63;;;1.88;;
77978;SDS011;67169;50.268;8.694;2023-10-09T12:37:03;3.75;;;1.42;;
77978;SDS011;67169;50.268;8.694;2023-10-09T12:39:32;5.53;;;1.65;;
77978;SDS011;67169;50.268;8.694;2023-10-09T12:41:59;3.83;;;1.70;;
77978;SDS011;67169;50.268;8.694;2023-10-09T12:44:31;2.10;;;1.67;;
77978;SDS011;67169;50.268;8.694;2023-10-09T12:47:04;5.13;;;1.92;;
77978;SDS011;67169;50.268;8.694;2023-10-09T12:49:31;4.30;;;2.20;;
77978;SDS011;67169;50.268;8.694;2023-10-09T12:51:57;2.67;;;1.80;;
77978;SDS011;67169;50.268;8.694;2023-10-09T12:54:24;3.63;;;1.35;;
77978;SDS011;67169;50.268;8.694;2023-10-09T12:56:54;2.08;;;1.30;;
77978;SDS011;67169;50.268;8.694;2023-10-09T12:59:22;2.63;;;1.65;;
77978;SDS011;67169;50.268;8.694;2023-10-09T13:01:49;5.20;;;2.00;;
77978;SDS011;67169;50.268;8.694;2023-10-09T13:04:22;2.15;;;1.27;;
77978;SDS011;67169;50.268;8.694;2023-10-09T13:06:56;2.75;;;1.50;;
77978;SDS011;67169;50.268;8.694;2023-10-09T13:09:27;4.75;;;1.52;;
77978;SDS011;67169;50.268;8.694;2023-10-09T13:12:02;1.98;;;1.45;;
77978;SDS011;67169;50.268;8.694;2023-10-09T13:14:28;2.90;;;1.13;;
77978;SDS011;67169;50.268;8.694;2023-10-09T13:16:59;2.22;;;1.33;;
77978;SDS011;67169;50.268;8.694;2023-10-09T13:19:33;2.88;;;1.33;;
77978;SDS011;67169;50.268;8.694;2023-10-09T13:21:59;2.38;;;1.35;;
77978;SDS011;67169;50.268;8.694;2023-10-09T13:24:28;2.40;;;1.15;;
77978;SDS011;67169;50.268;8.694;2023-10-09T13:26:56;3.50;;;1.55;;
77978;SDS011;67169;50.268;8.694;2023-10-09T13:29:25;3.97;;;1.45;;
77978;SDS011;67169;50.268;8.694;2023-10-09T13:31:52;2.58;;;1.15;;
77978;SDS011;67169;50.268;8.694;2023-10-09T13:34:23;2.88;;;1.33;;
77978;SDS011;67169;50.268;8.694;2023-10-09T13:36:53;2.55;;;1.30;;
77978;SDS011;67169;50.268;8.694;2023-10-09T13:39:20;2.35;;;1.30;;
77978;SDS011;67169;50.268;8.694;2023-10-09T13:41:49;2.60;;;1.50;;
77978;SDS011;67169;50.268;8.694;2023-10-09T13:44:22;2.97;;;1.67;;
77978;SDS011;67169;50.268;8.694;2023-10-09T13:46:53;4.30;;;1.45;;
77978;SDS011;67169;50.268;8.694;2023-10-09T13:49:20;3.72;;;1.55;;
77978;SDS011;67169;50.268;8.694;2023-10-09T13:51:47;3.47;;;1.40;;
77978;SDS011;67169;50.268;8.694;2023-10-09T13:56:46;2.47;;;1.23;;
77978;SDS011;67169;50.268;8.694;2023-10-09T13:59:17;2.35;;;1.10;;
77978;SDS011;67169;50.268;8.694;2023-10-09T14:01:55;5.32;;;2.03;;
77978;SDS011;67169;50.268;8.694;2023-10-09T14:04:24;1.65;;;1.20;;
77978;SDS011;67169;50.268;8.694;2023-10-09T14:06:51;2.13;;;1.70;;
77978;SDS011;67169;50.268;8.694;2023-10-09T14:09:23;2.13;;;1.55;;
77978;SDS011;67169;50.268;8.694;2023-10-09T14:11:59;2.22;;;1.17;;
77978;SDS011;67169;50.268;8.694;2023-10-09T14:14:33;3.65;;;1.58;;
77978;SDS011;67169;50.268;8.694;2023-10-09T14:17:13;7.05;;;1.70;;
77978;SDS011;67169;50.268;8.694;2023-10-09T14:19:43;4.75;;;1.63;;
77978;SDS011;67169;50.268;8.694;2023-10-09T14:22:12;4.30;;;2.03;;
77978;SDS011;67169;50.268;8.694;2023-10-09T14:24:40;2.67;;;1.90;;
77978;SDS011;67169;50.268;8.694;2023-10-09T14:27:10;2.30;;;1.25;;
77978;SDS011;67169;50.268;8.694;2023-10-09T14:29:42;4.07;;;1.48;;
77978;SDS011;67169;50.268;8.694;2023-10-09T14:32:10;2.78;;;1.42;;
77978;SDS011;67169;50.268;8.694;2023-10-09T14:34:39;3.83;;;1.15;;
77978;SDS011;67169;50.268;8.694;2023-10-09T14:37:11;9.75;;;1.90;;
77978;SDS011;67169;50.268;8.694;2023-10-09T14:39:40;2.78;;;1.48;;
77978;SDS011;67169;50.268;8.694;2023-10-09T14:42:07;2.17;;;1.73;;
77978;SDS011;67169;50.268;8.694;2023-10-09T14:44:35;2.78;;;1.85;;
77978;SDS011;67169;50.268;8.694;2023-10-09T14:47:08;2.55;;;1.50;;
77978;SDS011;67169;50.268;8.694;2023-10-09T14:49:38;4.65;;;1.90;;
77978;SDS011;67169;50.268;8.694;2023-10-09T14:52:13;3.17;;;1.55;;
77978;SDS011;67169;50.268;8.694;2023-10-09T14:54:47;2.03;;;1.20;;
77978;SDS011;67169;50.268;8.694;2023-10-09T14:57:16;1.88;;;1.15;;
77978;SDS011;67169;50.268;8.694;2023-10-09T14:59:43;3.95;;;1.23;;
77978;SDS011;67169;50.268;8.694;2023-10-09T15:02:11;4.63;;;1.63;;
77978;SDS011;67169;50.268;8.694;2023-10-09T15:04:37;7.00;;;2.20;;
77978;SDS011;67169;50.268;8.694;2023-10-09T15:07:08;3.95;;;1.50;;
77978;SDS011;67169;50.268;8.694;2023-10-09T15:09:35;2.55;;;1.48;;
77978;SDS011;67169;50.268;8.694;2023-10-09T15:12:06;3.10;;;1.63;;
77978;SDS011;67169;50.268;8.694;2023-10-09T15:14:34;5.32;;;1.52;;
77978;SDS011;67169;50.268;8.694;2023-10-09T15:17:02;3.47;;;1.52;;
77978;SDS011;67169;50.268;8.694;2023-10-09T15:19:31;3.72;;;1.50;;
77978;SDS011;67169;50.268;8.694;2023-10-09T15:22:01;6.32;;;2.72;;
77978;SDS011;67169;50.268;8.694;2023-10-09T15:24:33;4.47;;;1.92;;
77978;SDS011;67169;50.268;8.694;2023-10-09T15:27:03;7.03;;;1.70;;
77978;SDS011;67169;50.268;8.694;2023-10-09T15:29:30;3.03;;;1.48;;
77978;SDS011;67169;50.268;8.694;2023-10-09T15:31:59;4.57;;;1.80;;
77978;SDS011;67169;50.268;8.694;2023-10-09T15:34:29;2.97;;;1.70;;
77978;SDS011;67169;50.268;8.694;2023-10-09T15:36:56;1.92;;;1.27;;
77978;SDS011;67169;50.268;8.694;2023-10-09T15:39:24;3.10;;;1.60;;
77978;SDS011;67169;50.268;8.694;2023-10-09T15:41:50;2.42;;;1.70;;
77978;SDS011;67169;50.268;8.694;2023-10-09T15:44:17;2.67;;;1.38;;
77978;SDS011;67169;50.268;8.694;2023-10-09T15:46:44;4.43;;;2.10;;